Darstellungsparameter: Aktuell verwendete Einstellungen:
Skalierung der Graphiken ... ?
xyx+y,   Skalierungsfaktor:      Skalierung: Modus: x, Faktor: 1
Darstellungszeitraum ... ?
Vom - - bis: - -   Zeitraum: 16.03.2020 - 17.03.2020
Min/Max/Avg-Anzeige ... ?
Zeige MMA aktuell
Zeige MMA Monat
Zeige MMA alles
Zeige --A aktuell
Zeige --A Monat
Zeige --A alles
Keine MMA-Anzeige
MMA:
Keine MMA-Graphiken
MMA-Basis: 16.03.2020 - 17.03.2020
Quicknavigation für Darstellung... ?
Tage:      1T, 2T, 3T, 5T -1T -2T -3T -5T +1T +2T +3T +5T
Wochen: 1W, 2W, 3W -1W -2W -3W +1W +2W +3W
Monate: 1M, 3M, 6M -1M -3M -6M +1M +3M +6M
Jahre:    1J, 3J, 5J, 10J -1J -3J -5J -10J +1J +3J +5J +10J
Nutze für die Darstellung ... ?
Originaldaten oder Mittelwerte auf ...
Stundenbasis Tagesbasis Wochenbasis
Monatsbasis Jahresbasis      Datenbasis: Original-Daten
Darstellen als:
Statistik (Auto) Statistik J:M      Darstellung:
Zur Graphik,    zurück zur Übersicht aller Sensoren.
 
Tabellarische Datenbersicht: ?
 
Sensor: Nr:Datum:Temp:Abs-Feuchte:Windchill:Wind:
Aussen-T/F 1 16-03-2020 00:00:00 4.8 C 5.83 g/m*3 4.8 C 0 km/h
2 16-03-2020 00:05:00 4.8 C 5.83 g/m*3 4.8 C 0 km/h
3 16-03-2020 00:10:00 4.8 C 5.83 g/m*3 4.8 C 0 km/h
4 16-03-2020 00:15:00 4.7 C 5.73 g/m*3 4.7 C 0 km/h
5 16-03-2020 00:20:00 4.7 C 5.8 g/m*3 4.7 C 0 km/h
6 16-03-2020 00:25:00 4.6 C 5.69 g/m*3 4.6 C 0 km/h
7 16-03-2020 00:30:00 4.5 C 5.72 g/m*3 4.5 C 0 km/h
8 16-03-2020 00:35:00 4.4 C 5.68 g/m*3 4.4 C 0 km/h
9 16-03-2020 00:40:00 4.3 C 5.71 g/m*3 4.3 C 0 km/h
10 16-03-2020 00:45:00 4.2 C 5.67 g/m*3 4.2 C 0 km/h
11 16-03-2020 00:50:00 4.1 C 5.63 g/m*3 4.1 C 0 km/h
12 16-03-2020 00:55:00 4.1 C 5.63 g/m*3 4.1 C 0 km/h
13 16-03-2020 01:00:00 4 C 5.66 g/m*3 4 C 0 km/h
14 16-03-2020 01:05:00 4 C 5.66 g/m*3 4 C 0 km/h
15 16-03-2020 01:10:00 3.9 C 5.62 g/m*3 3.9 C 0 km/h
16 16-03-2020 01:15:00 3.8 C 5.58 g/m*3 3.8 C 0 km/h
17 16-03-2020 01:20:00 3.8 C 5.58 g/m*3 3.8 C 0 km/h
18 16-03-2020 01:25:00 3.7 C 5.55 g/m*3 3.7 C 0 km/h
19 16-03-2020 01:30:00 3.8 C 5.65 g/m*3 3.8 C 0 km/h
20 16-03-2020 01:35:00 3.8 C 5.65 g/m*3 3.8 C 0 km/h
21 16-03-2020 01:40:00 3.8 C 5.58 g/m*3 3.8 C 0 km/h
22 16-03-2020 01:45:00 3.7 C 5.55 g/m*3 3.7 C 0 km/h
23 16-03-2020 01:50:00 3.7 C 5.55 g/m*3 3.7 C 0 km/h
24 16-03-2020 01:55:00 3.7 C 5.61 g/m*3 3.7 C 0 km/h
25 16-03-2020 02:00:00 3.6 C 5.57 g/m*3 3.6 C 0 km/h
Sensor: Nr:Datum:Temp:Abs-Feuchte:Windchill:Wind:
Aussen-T/F 26 16-03-2020 02:05:00 3.6 C 5.57 g/m*3 3.6 C 0 km/h
27 16-03-2020 02:10:00 3.5 C 5.53 g/m*3 3.5 C 0 km/h
28 16-03-2020 02:15:00 3.5 C 5.53 g/m*3 3.5 C 0 km/h
29 16-03-2020 02:20:00 3.6 C 5.63 g/m*3 3.6 C 0 km/h
30 16-03-2020 02:25:00 3.5 C 5.53 g/m*3 3.5 C 0 km/h
31 16-03-2020 02:30:00 3.4 C 5.5 g/m*3 3.4 C 0 km/h
32 16-03-2020 02:35:00 3.3 C 5.46 g/m*3 3.3 C 0 km/h
33 16-03-2020 02:40:00 3.3 C 5.52 g/m*3 3.3 C 0 km/h
34 16-03-2020 02:45:00 3.4 C 5.56 g/m*3 3.4 C 0 km/h
35 16-03-2020 02:50:00 3.6 C 5.63 g/m*3 3.6 C 0 km/h
36 16-03-2020 02:55:00 3.8 C 5.71 g/m*3 3.8 C 0 km/h
37 16-03-2020 03:00:00 3.8 C 5.71 g/m*3 3.8 C 0 km/h
38 16-03-2020 03:05:00 3.8 C 5.65 g/m*3 3.8 C 0 km/h
39 16-03-2020 03:10:00 3.6 C 5.51 g/m*3 3.6 C 0 km/h
40 16-03-2020 03:15:00 3.5 C 5.53 g/m*3 3.5 C 0 km/h
41 16-03-2020 03:20:00 3.5 C 5.53 g/m*3 3.5 C 0 km/h
42 16-03-2020 03:25:00 3.4 C 5.5 g/m*3 3.4 C 0 km/h
43 16-03-2020 03:30:00 3.3 C 5.46 g/m*3 3.3 C 0 km/h
44 16-03-2020 03:35:00 3.3 C 5.46 g/m*3 3.3 C 0 km/h
45 16-03-2020 03:40:00 3.2 C 5.42 g/m*3 3.2 C 0 km/h
46 16-03-2020 03:45:00 3 C 5.35 g/m*3 3 C 0 km/h
47 16-03-2020 03:50:00 2.8 C 5.28 g/m*3 2.8 C 0 km/h
48 16-03-2020 03:55:00 2.8 C 5.34 g/m*3 2.8 C 0 km/h
49 16-03-2020 04:00:00 2.8 C 5.34 g/m*3 2.8 C 0 km/h
50 16-03-2020 04:05:00 2.8 C 5.34 g/m*3 2.8 C 0 km/h
Sensor: Nr:Datum:Temp:Abs-Feuchte:Windchill:Wind:
Aussen-T/F 51 16-03-2020 04:10:00 2.8 C 5.4 g/m*3 2.8 C 0 km/h
52 16-03-2020 04:15:00 2.7 C 5.36 g/m*3 2.7 C 0 km/h
53 16-03-2020 04:20:00 2.7 C 5.36 g/m*3 2.7 C 0 km/h
54 16-03-2020 04:25:00 2.7 C 5.36 g/m*3 2.7 C 0 km/h
55 16-03-2020 04:30:00 2.8 C 5.4 g/m*3 2.8 C 0 km/h
56 16-03-2020 04:35:00 2.8 C 5.4 g/m*3 2.8 C 0 km/h
57 16-03-2020 04:40:00 2.8 C 5.4 g/m*3 2.8 C 0 km/h
58 16-03-2020 04:45:00 2.7 C 5.36 g/m*3 2.7 C 0 km/h
59 16-03-2020 04:50:00 2.7 C 5.36 g/m*3 2.7 C 0 km/h
60 16-03-2020 04:55:00 2.6 C 5.32 g/m*3 2.6 C 0 km/h
61 16-03-2020 05:00:00 2.6 C 5.32 g/m*3 2.6 C 0 km/h
62 16-03-2020 05:05:00 2.5 C 5.29 g/m*3 2.5 C 0 km/h
63 16-03-2020 05:10:00 2.4 C 5.25 g/m*3 2.4 C 0 km/h
64 16-03-2020 05:15:00 2.6 C 5.38 g/m*3 2.6 C 0 km/h
65 16-03-2020 05:20:00 2.6 C 5.32 g/m*3 2.6 C 0 km/h
66 16-03-2020 05:25:00 2.6 C 5.32 g/m*3 2.6 C 0 km/h
67 16-03-2020 05:30:00 2.4 C 5.25 g/m*3 2.4 C 0 km/h
68 16-03-2020 05:35:00 2.3 C 5.22 g/m*3 2.3 C 0 km/h
69 16-03-2020 05:40:00 2.3 C 5.22 g/m*3 2.3 C 0 km/h
70 16-03-2020 05:45:00 2.3 C 5.22 g/m*3 2.3 C 0 km/h
71 16-03-2020 05:50:00 2.3 C 5.27 g/m*3 2.3 C 0 km/h
72 16-03-2020 05:55:00 2.2 C 5.24 g/m*3 2.2 C 0 km/h
73 16-03-2020 06:00:00 2.2 C 5.18 g/m*3 2.2 C 0 km/h
74 16-03-2020 06:05:00 2.1 C 5.2 g/m*3 2.1 C 0 km/h
75 16-03-2020 06:10:00 2 C 5.17 g/m*3 2 C 0 km/h
Sensor: Nr:Datum:Temp:Abs-Feuchte:Windchill:Wind:
Aussen-T/F 76 16-03-2020 06:15:00 1.9 C 5.13 g/m*3 1.9 C 0 km/h
77 16-03-2020 06:20:00 1.9 C 5.13 g/m*3 1.9 C 0 km/h
78 16-03-2020 06:25:00 1.8 C 5.1 g/m*3 1.8 C 0 km/h
79 16-03-2020 06:30:00 1.8 C 5.1 g/m*3 1.8 C 0 km/h
80 16-03-2020 06:35:00 1.8 C 5.1 g/m*3 1.8 C 0 km/h
81 16-03-2020 06:40:00 1.8 C 5.1 g/m*3 1.8 C 0 km/h
82 16-03-2020 06:45:00 1.7 C 5.06 g/m*3 1.7 C 0 km/h
83 16-03-2020 06:50:00 1.7 C 5.06 g/m*3 1.7 C 0 km/h
84 16-03-2020 06:55:00 1.7 C 5.06 g/m*3 1.7 C 0 km/h
85 16-03-2020 07:00:00 1.7 C 5.12 g/m*3 1.7 C 0 km/h
86 16-03-2020 07:05:00 1.9 C 5.19 g/m*3 1.9 C 0 km/h
87 16-03-2020 07:10:00 2.2 C 5.29 g/m*3 2.2 C 0 km/h
88 16-03-2020 07:15:00 2.2 C 5.29 g/m*3 2.2 C 0 km/h
89 16-03-2020 07:20:00 2.2 C 5.29 g/m*3 2.2 C 0 km/h
90 16-03-2020 07:25:00 2.1 C 5.26 g/m*3 2.1 C 0 km/h
91 16-03-2020 07:30:00 2.1 C 5.26 g/m*3 2.1 C 0 km/h
92 16-03-2020 07:35:00 2 C 5.22 g/m*3 2 C 0 km/h
93 16-03-2020 07:40:00 2 C 5.22 g/m*3 2 C 0 km/h
94 16-03-2020 07:45:00 2.1 C 5.26 g/m*3 2.1 C 0 km/h
95 16-03-2020 07:50:00 2.1 C 5.26 g/m*3 2.1 C 0 km/h
96 16-03-2020 07:55:00 2.2 C 5.29 g/m*3 2.2 C 0 km/h
97 16-03-2020 08:00:00 2.3 C 5.39 g/m*3 2.3 C 0 km/h
98 16-03-2020 08:05:00 2.4 C 5.42 g/m*3 2.4 C 0 km/h
99 16-03-2020 08:10:00 2.6 C 5.5 g/m*3 2.6 C 0 km/h
100 16-03-2020 08:15:00 2.6 C 5.5 g/m*3 2.6 C 0 km/h
Sensor: Nr:Datum:Temp:Abs-Feuchte:Windchill:Wind:
Aussen-T/F 101 16-03-2020 08:20:00 2.8 C 5.57 g/m*3 2.8 C 0 km/h
102 16-03-2020 08:25:00 2.9 C 5.61 g/m*3 2.9 C 0 km/h
103 16-03-2020 08:30:00 3 C 5.65 g/m*3 3 C 0 km/h
104 16-03-2020 08:35:00 3.1 C 5.69 g/m*3 3.1 C 0 km/h
105 16-03-2020 08:40:00 3.1 C 5.63 g/m*3 3.1 C 0 km/h
106 16-03-2020 08:45:00 3.2 C 5.72 g/m*3 3.2 C 0 km/h
107 16-03-2020 08:50:00 3.2 C 5.72 g/m*3 3.2 C 0 km/h
108 16-03-2020 08:55:00 3.2 C 5.72 g/m*3 3.2 C 0 km/h
109 16-03-2020 09:00:00 3.3 C 5.76 g/m*3 3.3 C 0 km/h
110 16-03-2020 09:05:00 3.5 C 5.84 g/m*3 3.5 C 0 km/h
111 16-03-2020 09:10:00 3.7 C 5.92 g/m*3 3.7 C 0 km/h
112 16-03-2020 09:15:00 3.8 C 5.96 g/m*3 3.8 C 0 km/h
113 16-03-2020 09:20:00 3.9 C 6 g/m*3 3.9 C 0 km/h
114 16-03-2020 09:25:00 4.1 C 6.08 g/m*3 4.1 C 0 km/h
115 16-03-2020 09:30:00 4.3 C 6.16 g/m*3 4.3 C 0 km/h
116 16-03-2020 09:35:00 4.4 C 6.2 g/m*3 4.4 C 0 km/h
117 16-03-2020 09:40:00 4.6 C 6.29 g/m*3 4.6 C 0 km/h
118 16-03-2020 09:45:00 4.8 C 6.37 g/m*3 4.8 C 0 km/h
119 16-03-2020 09:50:00 5 C 6.46 g/m*3 5 C 0 km/h
120 16-03-2020 09:55:00 5.2 C 6.47 g/m*3 5.2 C 0 km/h
121 16-03-2020 10:00:00 5.5 C 6.67 g/m*3 5.5 C 0 km/h
122 16-03-2020 10:05:00 5.8 C 6.73 g/m*3 5.8 C 0 km/h
123 16-03-2020 10:10:00 6 C 6.82 g/m*3 6 C 0 km/h
124 16-03-2020 10:15:00 6.3 C 6.88 g/m*3 6.3 C 0 km/h
125 16-03-2020 10:20:00 6.4 C 6.85 g/m*3 6.4 C 0 km/h
Sensor: Nr:Datum:Temp:Abs-Feuchte:Windchill:Wind:
Aussen-T/F 126 16-03-2020 10:25:00 6.7 C 6.99 g/m*3 6.7 C 0 km/h
127 16-03-2020 10:30:00 7.1 C 7.1 g/m*3 7.1 C 0 km/h
128 16-03-2020 10:35:00 7.3 C 7.11 g/m*3 7.3 C 0 km/h
129 16-03-2020 10:40:00 7.8 C 7.26 g/m*3 7.8 C 0 km/h
130 16-03-2020 10:45:00 8.2 C 7.45 g/m*3 8.2 C 0 km/h
131 16-03-2020 10:50:00 8.7 C 7.61 g/m*3 8.7 C 0 km/h
132 16-03-2020 10:55:00 9.1 C 7.63 g/m*3 9.1 C 0 km/h
133 16-03-2020 11:00:00 9.6 C 7.79 g/m*3 9.6 C 0 km/h
134 16-03-2020 11:05:00 9.9 C 7.75 g/m*3 9.9 C 0 km/h
135 16-03-2020 11:10:00 10.4 C 7.9 g/m*3 10.4 C 0 km/h
136 16-03-2020 11:15:00 10.9 C 7.96 g/m*3 10.9 C 0 km/h
137 16-03-2020 11:20:00 11.6 C 8.21 g/m*3 11.6 C 3.2 km/h
138 16-03-2020 11:25:00 12.1 C 8.26 g/m*3 12.1 C 1.6 km/h
139 16-03-2020 11:30:00 12.6 C 8.3 g/m*3 12.6 C 3.2 km/h
140 16-03-2020 11:35:00 13.1 C 8.33 g/m*3 13.1 C 6.4 km/h
141 16-03-2020 11:40:00 13.4 C 8.25 g/m*3 13.4 C 6.4 km/h
142 16-03-2020 11:45:00 13.7 C 8.29 g/m*3 13.7 C 6.4 km/h
143 16-03-2020 11:50:00 13.9 C 8.39 g/m*3 13.9 C 6.4 km/h
144 16-03-2020 11:55:00 14.1 C 8.37 g/m*3 14.1 C 6.4 km/h
145 16-03-2020 12:00:00 14.3 C 8.6 g/m*3 14.3 C 4.8 km/h
146 16-03-2020 12:05:00 14.6 C 8.51 g/m*3 14.6 C 8.1 km/h
147 16-03-2020 12:10:00 14.7 C 8.31 g/m*3 14.7 C 6.4 km/h
148 16-03-2020 12:15:00 14.9 C 8.28 g/m*3 14.9 C 6.4 km/h
149 16-03-2020 12:20:00 15.1 C 8.51 g/m*3 15.1 C 6.4 km/h
150 16-03-2020 12:25:00 15.2 C 8.44 g/m*3 15.2 C 4.8 km/h
Sensor: Nr:Datum:Temp:Abs-Feuchte:Windchill:Wind:
Aussen-T/F 151 16-03-2020 12:30:00 15.3 C 8.23 g/m*3 15.3 C 4.8 km/h
152 16-03-2020 12:35:00 15.4 C 8.28 g/m*3 15.4 C 8.1 km/h
153 16-03-2020 12:40:00 15.6 C 8.38 g/m*3 15.6 C 4.8 km/h
154 16-03-2020 12:45:00 15.7 C 8.43 g/m*3 15.7 C 3.2 km/h
155 16-03-2020 12:50:00 15.8 C 8.48 g/m*3 15.8 C 4.8 km/h
156 16-03-2020 12:55:00 15.8 C 8.62 g/m*3 15.8 C 0 km/h
157 16-03-2020 13:00:00 15.9 C 8.53 g/m*3 15.9 C 0 km/h
158 16-03-2020 13:05:00 16.1 C 8.5 g/m*3 16.1 C 3.2 km/h
159 16-03-2020 13:10:00 16.3 C 8.6 g/m*3 16.3 C 3.2 km/h
160 16-03-2020 13:15:00 16.4 C 8.65 g/m*3 16.4 C 3.2 km/h
161 16-03-2020 13:20:00 16.4 C 8.23 g/m*3 16.4 C 6.4 km/h
162 16-03-2020 13:25:00 16.3 C 8.46 g/m*3 16.3 C 6.4 km/h
163 16-03-2020 13:30:00 16.4 C 8.37 g/m*3 16.4 C 1.6 km/h
164 16-03-2020 13:35:00 16.5 C 8.43 g/m*3 16.5 C 4.8 km/h
165 16-03-2020 13:40:00 16.7 C 8.67 g/m*3 16.7 C 3.2 km/h
166 16-03-2020 13:45:00 16.9 C 8.63 g/m*3 16.9 C 1.6 km/h
167 16-03-2020 13:50:00 17.2 C 8.64 g/m*3 17.2 C 3.2 km/h
168 16-03-2020 13:55:00 17.2 C 8.64 g/m*3 17.2 C 6.4 km/h
169 16-03-2020 14:00:00 17.2 C 8.64 g/m*3 17.2 C 4.8 km/h
170 16-03-2020 14:05:00 17.3 C 8.69 g/m*3 17.3 C 6.4 km/h
171 16-03-2020 14:10:00 17.4 C 8.6 g/m*3 17.4 C 3.2 km/h
172 16-03-2020 14:15:00 17.5 C 8.65 g/m*3 17.5 C 6.4 km/h
173 16-03-2020 14:20:00 17.5 C 8.65 g/m*3 17.5 C 6.4 km/h
174 16-03-2020 14:25:00 17.3 C 8.69 g/m*3 17.3 C 9.7 km/h
175 16-03-2020 14:30:00 17.3 C 8.84 g/m*3 17.3 C 6.4 km/h
Sensor: Nr:Datum:Temp:Abs-Feuchte:Windchill:Wind:
Aussen-T/F 176 16-03-2020 14:35:00 17.3 C 8.84 g/m*3 17.3 C 1.6 km/h
177 16-03-2020 14:40:00 17.3 C 8.69 g/m*3 17.3 C 4.8 km/h
178 16-03-2020 14:45:00 17.5 C 8.8 g/m*3 17.5 C 8.1 km/h
179 16-03-2020 14:50:00 17.6 C 8.7 g/m*3 17.6 C 6.4 km/h
180 16-03-2020 14:55:00 17.6 C 8.85 g/m*3 17.6 C 4.8 km/h
181 16-03-2020 15:00:00 17.7 C 8.75 g/m*3 17.7 C 6.4 km/h
182 16-03-2020 15:05:00 17.8 C 8.8 g/m*3 17.8 C 9.7 km/h
183 16-03-2020 15:10:00 17.8 C 8.8 g/m*3 17.8 C 8.1 km/h
184 16-03-2020 15:15:00 17.8 C 8.8 g/m*3 17.8 C 9.7 km/h
185 16-03-2020 15:20:00 17.7 C 8.9 g/m*3 17.7 C 8.1 km/h
186 16-03-2020 15:25:00 17.7 C 8.9 g/m*3 17.7 C 6.4 km/h
187 16-03-2020 15:30:00 17.7 C 8.75 g/m*3 17.7 C 8.1 km/h
188 16-03-2020 15:35:00 17.8 C 8.95 g/m*3 17.8 C 6.4 km/h
189 16-03-2020 15:40:00 17.9 C 8.7 g/m*3 17.9 C 9.7 km/h
190 16-03-2020 15:45:00 17.9 C 8.7 g/m*3 17.9 C 8.1 km/h
191 16-03-2020 15:50:00 17.9 C 8.7 g/m*3 17.9 C 9.7 km/h
192 16-03-2020 15:55:00 17.9 C 8.86 g/m*3 17.9 C 6.4 km/h
193 16-03-2020 16:00:00 17.9 C 8.86 g/m*3 17.9 C 9.7 km/h
194 16-03-2020 16:05:00 18 C 8.91 g/m*3 18 C 6.4 km/h
195 16-03-2020 16:10:00 18 C 8.91 g/m*3 18 C 8.1 km/h
196 16-03-2020 16:15:00 18 C 8.75 g/m*3 18 C 8.1 km/h
197 16-03-2020 16:20:00 18.1 C 8.65 g/m*3 18.1 C 11.3 km/h
198 16-03-2020 16:25:00 18.2 C 8.86 g/m*3 18.2 C 8.1 km/h
199 16-03-2020 16:30:00 18.5 C 9.18 g/m*3 18.5 C 6.4 km/h
200 16-03-2020 16:35:00 18.7 C 8.81 g/m*3 18.7 C 8.1 km/h
Sensor: Nr:Datum:Temp:Abs-Feuchte:Windchill:Wind:
Aussen-T/F 201 16-03-2020 16:40:00 18.9 C 8.59 g/m*3 18.9 C 6.4 km/h
202 16-03-2020 16:45:00 19 C 8.8 g/m*3 19 C 6.4 km/h
203 16-03-2020 16:50:00 19.1 C 8.69 g/m*3 19.1 C 9.7 km/h
204 16-03-2020 16:55:00 19 C 8.64 g/m*3 19 C 8.1 km/h
205 16-03-2020 17:00:00 18.9 C 8.75 g/m*3 18.9 C 6.4 km/h
206 16-03-2020 17:05:00 18.9 C 8.59 g/m*3 18.9 C 9.7 km/h
207 16-03-2020 17:10:00 18.9 C 8.75 g/m*3 18.9 C 12.9 km/h
208 16-03-2020 17:15:00 18.9 C 8.75 g/m*3 18.9 C 9.7 km/h
209 16-03-2020 17:20:00 18.9 C 8.91 g/m*3 18.9 C 8.1 km/h
210 16-03-2020 17:25:00 18.7 C 8.81 g/m*3 18.7 C 11.3 km/h
211 16-03-2020 17:30:00 18.5 C 8.7 g/m*3 18.5 C 8.1 km/h
212 16-03-2020 17:35:00 18.4 C 8.81 g/m*3 18.4 C 4.8 km/h
213 16-03-2020 17:40:00 18.2 C 8.7 g/m*3 18.2 C 8.1 km/h
214 16-03-2020 17:45:00 18 C 8.75 g/m*3 18 C 9.7 km/h
215 16-03-2020 17:50:00 17.9 C 9.01 g/m*3 17.9 C 6.4 km/h
216 16-03-2020 17:55:00 17.8 C 8.95 g/m*3 17.8 C 6.4 km/h
217 16-03-2020 18:00:00 17.7 C 9.05 g/m*3 17.7 C 3.2 km/h
218 16-03-2020 18:05:00 17.4 C 9.04 g/m*3 17.4 C 4.8 km/h
219 16-03-2020 18:10:00 16.9 C 8.77 g/m*3 16.9 C 4.8 km/h
220 16-03-2020 18:15:00 16.5 C 8.99 g/m*3 16.5 C 4.8 km/h
221 16-03-2020 18:20:00 16.1 C 8.91 g/m*3 16.1 C 4.8 km/h
222 16-03-2020 18:25:00 15.6 C 8.91 g/m*3 15.6 C 6.4 km/h
223 16-03-2020 18:30:00 15.1 C 8.77 g/m*3 15.1 C 6.4 km/h
224 16-03-2020 18:35:00 14.6 C 8.76 g/m*3 14.6 C 6.4 km/h
225 16-03-2020 18:40:00 14.2 C 8.67 g/m*3 14.2 C 6.4 km/h
Sensor: Nr:Datum:Temp:Abs-Feuchte:Windchill:Wind:
Aussen-T/F 226 16-03-2020 18:45:00 13.9 C 8.63 g/m*3 13.9 C 6.4 km/h
227 16-03-2020 18:50:00 13.6 C 8.59 g/m*3 13.6 C 6.4 km/h
228 16-03-2020 18:55:00 13.4 C 8.6 g/m*3 13.4 C 6.4 km/h
229 16-03-2020 19:00:00 13.2 C 8.61 g/m*3 13.2 C 4.8 km/h
230 16-03-2020 19:05:00 12.9 C 8.57 g/m*3 12.9 C 6.4 km/h
231 16-03-2020 19:10:00 12.7 C 8.46 g/m*3 12.7 C 6.4 km/h
232 16-03-2020 19:15:00 12.6 C 8.52 g/m*3 12.6 C 6.4 km/h
233 16-03-2020 19:20:00 12.4 C 8.52 g/m*3 12.4 C 6.4 km/h
234 16-03-2020 19:25:00 12.3 C 8.47 g/m*3 12.3 C 6.4 km/h
235 16-03-2020 19:30:00 12.2 C 8.52 g/m*3 12.2 C 6.4 km/h
236 16-03-2020 19:35:00 12.1 C 8.47 g/m*3 12.1 C 6.4 km/h
237 16-03-2020 19:40:00 12.1 C 8.47 g/m*3 12.1 C 6.4 km/h
238 16-03-2020 19:45:00 11.9 C 8.47 g/m*3 11.9 C 6.4 km/h
239 16-03-2020 19:50:00 11.8 C 8.42 g/m*3 11.8 C 6.4 km/h
240 16-03-2020 19:55:00 11.7 C 8.37 g/m*3 11.7 C 4.8 km/h
241 16-03-2020 20:00:00 11.6 C 8.42 g/m*3 11.6 C 4.8 km/h
242 16-03-2020 20:05:00 11.6 C 8.42 g/m*3 11.6 C 4.8 km/h
243 16-03-2020 20:10:00 11.4 C 8.31 g/m*3 11.4 C 4.8 km/h
244 16-03-2020 20:15:00 11.4 C 8.42 g/m*3 11.4 C 0 km/h
245 16-03-2020 20:20:00 11.3 C 8.26 g/m*3 11.3 C 6.4 km/h
246 16-03-2020 20:25:00 11.3 C 8.36 g/m*3 11.3 C 4.8 km/h
247 16-03-2020 20:30:00 11.3 C 8.36 g/m*3 11.3 C 4.8 km/h
248 16-03-2020 20:35:00 11.2 C 8.31 g/m*3 11.2 C 4.8 km/h
249 16-03-2020 20:40:00 11.1 C 8.16 g/m*3 11.1 C 0 km/h
250 16-03-2020 20:45:00 10.8 C 8.11 g/m*3 10.8 C 0 km/h
Sensor: Nr:Datum:Temp:Abs-Feuchte:Windchill:Wind:
Aussen-T/F 251 16-03-2020 20:50:00 10.6 C 8.1 g/m*3 10.6 C 0 km/h
252 16-03-2020 20:55:00 10.4 C 8.1 g/m*3 9.83 C 6.4 km/h
253 16-03-2020 21:00:00 10.3 C 8.04 g/m*3 10.3 C 4.8 km/h
254 16-03-2020 21:05:00 10.3 C 8.14 g/m*3 10.3 C 3.2 km/h
255 16-03-2020 21:10:00 10.3 C 8.14 g/m*3 10.3 C 0 km/h
256 16-03-2020 21:15:00 10.3 C 8.14 g/m*3 10.3 C 0 km/h
257 16-03-2020 21:20:00 10.3 C 8.14 g/m*3 10.3 C 4.8 km/h
258 16-03-2020 21:25:00 10.3 C 8.14 g/m*3 9.72 C 6.4 km/h
259 16-03-2020 21:30:00 10.2 C 8.09 g/m*3 10.2 C 0 km/h
260 16-03-2020 21:35:00 10.2 C 8.18 g/m*3 10.2 C 0 km/h
261 16-03-2020 21:40:00 10.1 C 8.13 g/m*3 10.1 C 3.2 km/h
262 16-03-2020 21:45:00 10.1 C 8.13 g/m*3 10.1 C 4.8 km/h
263 16-03-2020 21:50:00 10.2 C 8.18 g/m*3 9.6 C 6.4 km/h
264 16-03-2020 21:55:00 10.2 C 8.18 g/m*3 10.2 C 1.6 km/h
265 16-03-2020 22:00:00 10.2 C 8.18 g/m*3 10.2 C 0 km/h
266 16-03-2020 22:05:00 10.2 C 8.18 g/m*3 10.2 C 1.6 km/h
267 16-03-2020 22:10:00 10.2 C 8.18 g/m*3 10.2 C 3.2 km/h
268 16-03-2020 22:15:00 10.2 C 8.18 g/m*3 10.2 C 0 km/h
269 16-03-2020 22:20:00 10.1 C 8.13 g/m*3 10.1 C 0 km/h
270 16-03-2020 22:25:00 10 C 8.08 g/m*3 10 C 1.6 km/h
271 16-03-2020 22:30:00 9.9 C 8.03 g/m*3 9.25 C 6.4 km/h
272 16-03-2020 22:35:00 9.9 C 8.12 g/m*3 9.9 C 3.2 km/h
273 16-03-2020 22:40:00 9.8 C 7.98 g/m*3 9.8 C 0 km/h
274 16-03-2020 22:45:00 9.7 C 8.02 g/m*3 9.7 C 0 km/h
275 16-03-2020 22:50:00 9.6 C 7.97 g/m*3 9.6 C 0 km/h
Sensor: Nr:Datum:Temp:Abs-Feuchte:Windchill:Wind:
Aussen-T/F 276 16-03-2020 22:55:00 9.6 C 7.97 g/m*3 9.6 C 4.8 km/h
277 16-03-2020 23:00:00 9.6 C 8.06 g/m*3 9.6 C 0 km/h
278 16-03-2020 23:05:00 9.6 C 8.06 g/m*3 9.6 C 3.2 km/h
279 16-03-2020 23:10:00 9.6 C 8.06 g/m*3 9.6 C 1.6 km/h
280 16-03-2020 23:15:00 9.7 C 8.11 g/m*3 9.7 C 0 km/h
281 16-03-2020 23:20:00 9.7 C 8.11 g/m*3 9.7 C 0 km/h
282 16-03-2020 23:25:00 9.7 C 8.11 g/m*3 9.7 C 0 km/h
283 16-03-2020 23:30:00 9.7 C 8.11 g/m*3 9.7 C 0 km/h
284 16-03-2020 23:35:00 9.8 C 8.16 g/m*3 9.8 C 0 km/h
285 16-03-2020 23:40:00 9.8 C 8.26 g/m*3 9.8 C 0 km/h
286 16-03-2020 23:45:00 9.8 C 8.26 g/m*3 9.8 C 0 km/h
287 16-03-2020 23:50:00 9.8 C 8.26 g/m*3 9.8 C 0 km/h
288 16-03-2020 23:55:00 9.8 C 8.16 g/m*3 9.8 C 0 km/h
289 17-03-2020 00:00:00 9.8 C 8.16 g/m*3 9.8 C 0 km/h
290 17-03-2020 00:05:00 9.8 C 8.16 g/m*3 9.8 C 0 km/h
291 17-03-2020 00:10:00 9.8 C 8.16 g/m*3 9.8 C 0 km/h
292 17-03-2020 00:15:00 9.7 C 8.11 g/m*3 9.7 C 0 km/h
293 17-03-2020 00:20:00 9.8 C 8.26 g/m*3 9.8 C 0 km/h
294 17-03-2020 00:25:00 9.8 C 8.26 g/m*3 9.8 C 0 km/h
295 17-03-2020 00:30:00 9.8 C 8.26 g/m*3 9.8 C 0 km/h
296 17-03-2020 00:35:00 9.8 C 8.26 g/m*3 9.8 C 0 km/h
297 17-03-2020 00:40:00 9.8 C 8.16 g/m*3 9.8 C 0 km/h
298 17-03-2020 00:45:00 9.7 C 8.11 g/m*3 9.7 C 0 km/h
299 17-03-2020 00:50:00 9.7 C 8.2 g/m*3 9.7 C 0 km/h
300 17-03-2020 00:55:00 9.6 C 8.15 g/m*3 9.6 C 0 km/h
Sensor: Nr:Datum:Temp:Abs-Feuchte:Windchill:Wind:
Aussen-T/F 301 17-03-2020 01:00:00 9.6 C 8.15 g/m*3 9.6 C 0 km/h
302 17-03-2020 01:05:00 9.5 C 8.1 g/m*3 9.5 C 0 km/h
303 17-03-2020 01:10:00 9.5 C 8.1 g/m*3 9.5 C 0 km/h
304 17-03-2020 01:15:00 9.5 C 8.19 g/m*3 9.5 C 0 km/h
305 17-03-2020 01:20:00 9.5 C 8.19 g/m*3 9.5 C 0 km/h
306 17-03-2020 01:25:00 9.4 C 8.14 g/m*3 9.4 C 0 km/h
307 17-03-2020 01:30:00 9.4 C 8.14 g/m*3 9.4 C 0 km/h
308 17-03-2020 01:35:00 9.3 C 8.09 g/m*3 9.3 C 0 km/h
309 17-03-2020 01:40:00 9.3 C 8.09 g/m*3 9.3 C 0 km/h
310 17-03-2020 01:45:00 9.3 C 8.09 g/m*3 9.3 C 0 km/h
311 17-03-2020 01:50:00 9.3 C 8.09 g/m*3 9.3 C 0 km/h
312 17-03-2020 01:55:00 9.3 C 8.09 g/m*3 9.3 C 0 km/h
313 17-03-2020 02:00:00 9.3 C 8.09 g/m*3 9.3 C 0 km/h
314 17-03-2020 02:05:00 9.2 C 8.04 g/m*3 9.2 C 0 km/h
315 17-03-2020 02:10:00 9.2 C 8.04 g/m*3 9.2 C 0 km/h
316 17-03-2020 02:15:00 9.2 C 8.13 g/m*3 9.2 C 0 km/h
317 17-03-2020 02:20:00 9.2 C 8.13 g/m*3 9.2 C 0 km/h
318 17-03-2020 02:25:00 9.2 C 8.13 g/m*3 9.2 C 0 km/h
319 17-03-2020 02:30:00 9.2 C 8.13 g/m*3 9.2 C 0 km/h
320 17-03-2020 02:35:00 9.2 C 8.13 g/m*3 9.2 C 0 km/h
321 17-03-2020 02:40:00 9.3 C 8.18 g/m*3 9.3 C 0 km/h
322 17-03-2020 02:45:00 9.3 C 8.18 g/m*3 9.3 C 0 km/h
323 17-03-2020 02:50:00 9.3 C 8.18 g/m*3 9.3 C 0 km/h
324 17-03-2020 02:55:00 9.3 C 8.18 g/m*3 9.3 C 0 km/h
325 17-03-2020 03:00:00 9.2 C 8.13 g/m*3 9.2 C 0 km/h
Sensor: Nr:Datum:Temp:Abs-Feuchte:Windchill:Wind:
Aussen-T/F 326 17-03-2020 03:05:00 9.2 C 8.13 g/m*3 9.2 C 0 km/h
327 17-03-2020 03:10:00 9.2 C 8.13 g/m*3 9.2 C 0 km/h
328 17-03-2020 03:15:00 9.1 C 8.07 g/m*3 9.1 C 0 km/h
329 17-03-2020 03:20:00 9.1 C 8.07 g/m*3 9.1 C 0 km/h
330 17-03-2020 03:25:00 9 C 8.02 g/m*3 9 C 0 km/h
331 17-03-2020 03:30:00 8.9 C 7.97 g/m*3 8.9 C 0 km/h
332 17-03-2020 03:35:00 8.9 C 7.97 g/m*3 8.9 C 0 km/h
333 17-03-2020 03:40:00 8.9 C 8.06 g/m*3 8.9 C 0 km/h
334 17-03-2020 03:45:00 8.9 C 7.97 g/m*3 8.9 C 0 km/h
335 17-03-2020 03:50:00 8.8 C 7.92 g/m*3 8.8 C 0 km/h
336 17-03-2020 03:55:00 8.7 C 7.87 g/m*3 8.7 C 0 km/h
337 17-03-2020 04:00:00 8.6 C 7.82 g/m*3 8.6 C 0 km/h
338 17-03-2020 04:05:00 8.6 C 7.91 g/m*3 8.6 C 4.8 km/h
339 17-03-2020 04:10:00 8.7 C 7.96 g/m*3 8.7 C 0 km/h
340 17-03-2020 04:15:00 8.8 C 8.09 g/m*3 8.8 C 0 km/h
341 17-03-2020 04:20:00 9 C 8.2 g/m*3 9 C 0 km/h
342 17-03-2020 04:25:00 9.1 C 8.25 g/m*3 9.1 C 0 km/h
343 17-03-2020 04:30:00 9.2 C 8.3 g/m*3 9.2 C 0 km/h
344 17-03-2020 04:35:00 9.2 C 8.22 g/m*3 9.2 C 0 km/h
345 17-03-2020 04:40:00 9.2 C 8.22 g/m*3 9.2 C 0 km/h
346 17-03-2020 04:45:00 9.2 C 8.22 g/m*3 9.2 C 0 km/h
347 17-03-2020 04:50:00 9.2 C 8.22 g/m*3 9.2 C 0 km/h
348 17-03-2020 04:55:00 9.2 C 8.22 g/m*3 9.2 C 0 km/h
349 17-03-2020 05:00:00 9.1 C 8.16 g/m*3 9.1 C 0 km/h
350 17-03-2020 05:05:00 9.1 C 8.16 g/m*3 9.1 C 0 km/h
Sensor: Nr:Datum:Temp:Abs-Feuchte:Windchill:Wind:
Aussen-T/F 351 17-03-2020 05:10:00 9.1 C 8.16 g/m*3 9.1 C 3.2 km/h
352 17-03-2020 05:15:00 9.1 C 8.16 g/m*3 9.1 C 1.6 km/h
353 17-03-2020 05:20:00 9.2 C 8.13 g/m*3 9.2 C 0 km/h
354 17-03-2020 05:25:00 9.2 C 8.13 g/m*3 9.2 C 0 km/h
355 17-03-2020 05:30:00 9.2 C 8.13 g/m*3 9.2 C 0 km/h
356 17-03-2020 05:35:00 9.1 C 8.07 g/m*3 9.1 C 0 km/h
357 17-03-2020 05:40:00 9 C 8.02 g/m*3 9 C 0 km/h
358 17-03-2020 05:45:00 9 C 8.02 g/m*3 9 C 1.6 km/h
359 17-03-2020 05:50:00 8.9 C 7.97 g/m*3 8.9 C 3.2 km/h
360 17-03-2020 05:55:00 8.8 C 7.92 g/m*3 8.8 C 1.6 km/h
361 17-03-2020 06:00:00 8.8 C 7.92 g/m*3 8.8 C 0 km/h
362 17-03-2020 06:05:00 8.8 C 7.92 g/m*3 8.8 C 0 km/h
363 17-03-2020 06:10:00 8.8 C 7.92 g/m*3 8.8 C 0 km/h
364 17-03-2020 06:15:00 8.7 C 7.87 g/m*3 8.7 C 0 km/h
365 17-03-2020 06:20:00 8.7 C 7.87 g/m*3 8.7 C 1.6 km/h
366 17-03-2020 06:25:00 8.6 C 7.82 g/m*3 8.6 C 0 km/h
367 17-03-2020 06:30:00 8.6 C 7.82 g/m*3 8.6 C 0 km/h
368 17-03-2020 06:35:00 8.6 C 7.82 g/m*3 8.6 C 0 km/h
369 17-03-2020 06:40:00 8.6 C 7.91 g/m*3 8.6 C 0 km/h
370 17-03-2020 06:45:00 8.6 C 7.91 g/m*3 8.6 C 0 km/h
371 17-03-2020 06:50:00 8.6 C 7.91 g/m*3 8.6 C 0 km/h
372 17-03-2020 06:55:00 8.6 C 7.91 g/m*3 8.6 C 0 km/h
373 17-03-2020 07:00:00 8.6 C 7.91 g/m*3 8.6 C 3.2 km/h
374 17-03-2020 07:05:00 8.6 C 7.91 g/m*3 8.6 C 1.6 km/h
375 17-03-2020 07:10:00 8.8 C 8.01 g/m*3 8.8 C 3.2 km/h
Sensor: Nr:Datum:Temp:Abs-Feuchte:Windchill:Wind:
Aussen-T/F 376 17-03-2020 07:15:00 8.8 C 8.01 g/m*3 8.8 C 1.6 km/h
377 17-03-2020 07:20:00 8.9 C 7.97 g/m*3 8.9 C 1.6 km/h
378 17-03-2020 07:25:00 9.1 C 8.07 g/m*3 9.1 C 1.6 km/h
379 17-03-2020 07:30:00 9.2 C 8.13 g/m*3 9.2 C 0 km/h
380 17-03-2020 07:35:00 9.3 C 8.18 g/m*3 9.3 C 0 km/h
381 17-03-2020 07:40:00 9.4 C 8.14 g/m*3 9.4 C 1.6 km/h
382 17-03-2020 07:45:00 9.5 C 8.19 g/m*3 9.5 C 0 km/h
383 17-03-2020 07:50:00 9.6 C 8.15 g/m*3 9.6 C 1.6 km/h
384 17-03-2020 07:55:00 9.6 C 8.15 g/m*3 9.6 C 0 km/h
385 17-03-2020 08:00:00 9.7 C 8.2 g/m*3 9.7 C 0 km/h
386 17-03-2020 08:05:00 9.8 C 8.16 g/m*3 9.8 C 1.6 km/h
387 17-03-2020 08:10:00 9.8 C 8.16 g/m*3 9.8 C 1.6 km/h
388 17-03-2020 08:15:00 9.9 C 8.12 g/m*3 9.9 C 0 km/h
389 17-03-2020 08:20:00 10 C 8.17 g/m*3 10 C 1.6 km/h
390 17-03-2020 08:25:00 10 C 8.08 g/m*3 9.37 C 6.4 km/h
391 17-03-2020 08:30:00 10.1 C 8.13 g/m*3 10.1 C 0 km/h
392 17-03-2020 08:35:00 10.1 C 8.23 g/m*3 10.1 C 0 km/h
393 17-03-2020 08:40:00 10.1 C 8.23 g/m*3 10.1 C 0 km/h
394 17-03-2020 08:45:00 10.1 C 8.13 g/m*3 10.1 C 0 km/h
395 17-03-2020 08:50:00 10.1 C 8.13 g/m*3 10.1 C 4.8 km/h
396 17-03-2020 08:55:00 10.1 C 8.13 g/m*3 10.1 C 1.6 km/h
397 17-03-2020 09:00:00 10.1 C 8.04 g/m*3 10.1 C 0 km/h
398 17-03-2020 09:05:00 10.2 C 8.09 g/m*3 10.2 C 1.6 km/h
399 17-03-2020 09:10:00 10.2 C 8.09 g/m*3 10.2 C 0 km/h
400 17-03-2020 09:15:00 10.2 C 8.09 g/m*3 10.2 C 0 km/h
Sensor: Nr:Datum:Temp:Abs-Feuchte:Windchill:Wind:
Aussen-T/F 401 17-03-2020 09:20:00 10.3 C 8.14 g/m*3 10.3 C 0 km/h
402 17-03-2020 09:25:00 10.3 C 8.14 g/m*3 10.3 C 0 km/h
403 17-03-2020 09:30:00 10.3 C 8.04 g/m*3 10.3 C 0 km/h
404 17-03-2020 09:35:00 10.4 C 8.1 g/m*3 10.4 C 0 km/h
405 17-03-2020 09:40:00 10.4 C 8.19 g/m*3 10.4 C 0 km/h
406 17-03-2020 09:45:00 10.4 C 8.1 g/m*3 10.4 C 3.2 km/h
407 17-03-2020 09:50:00 10.4 C 8.1 g/m*3 10.4 C 0 km/h
408 17-03-2020 09:55:00 10.5 C 8.15 g/m*3 10.5 C 0 km/h
409 17-03-2020 10:00:00 10.6 C 8.2 g/m*3 10.6 C 1.6 km/h
410 17-03-2020 10:05:00 10.6 C 8.2 g/m*3 10.6 C 1.6 km/h
411 17-03-2020 10:10:00 10.6 C 8.2 g/m*3 10.6 C 1.6 km/h
412 17-03-2020 10:15:00 10.7 C 8.15 g/m*3 10.7 C 1.6 km/h
413 17-03-2020 10:20:00 10.7 C 8.25 g/m*3 10.7 C 0 km/h
414 17-03-2020 10:25:00 10.8 C 8.2 g/m*3 10.8 C 0 km/h
415 17-03-2020 10:30:00 10.9 C 8.36 g/m*3 10.9 C 0 km/h
416 17-03-2020 10:35:00 11 C 8.31 g/m*3 11 C 1.6 km/h
417 17-03-2020 10:40:00 11.1 C 8.26 g/m*3 11.1 C 0 km/h
418 17-03-2020 10:45:00 11.2 C 8.31 g/m*3 11.2 C 1.6 km/h
419 17-03-2020 10:50:00 11.3 C 8.26 g/m*3 11.3 C 0 km/h
420 17-03-2020 10:55:00 11.3 C 8.26 g/m*3 11.3 C 4.8 km/h
421 17-03-2020 11:00:00 11.4 C 8.31 g/m*3 11.4 C 3.2 km/h
422 17-03-2020 11:05:00 11.6 C 8.32 g/m*3 11.6 C 1.6 km/h
423 17-03-2020 11:10:00 11.7 C 8.26 g/m*3 11.7 C 3.2 km/h
424 17-03-2020 11:15:00 11.8 C 8.31 g/m*3 11.8 C 3.2 km/h
425 17-03-2020 11:20:00 11.8 C 8.42 g/m*3 11.8 C 3.2 km/h
Sensor: Nr:Datum:Temp:Abs-Feuchte:Windchill:Wind:
Aussen-T/F 426 17-03-2020 11:25:00 11.9 C 8.37 g/m*3 11.9 C 3.2 km/h
427 17-03-2020 11:30:00 12.1 C 8.47 g/m*3 12.1 C 1.6 km/h
428 17-03-2020 11:35:00 12.2 C 8.42 g/m*3 12.2 C 4.8 km/h
429 17-03-2020 11:40:00 12.4 C 8.52 g/m*3 12.4 C 3.2 km/h
430 17-03-2020 11:45:00 12.6 C 8.52 g/m*3 12.6 C 3.2 km/h
431 17-03-2020 11:50:00 12.6 C 8.41 g/m*3 12.6 C 0 km/h
432 17-03-2020 11:55:00 12.6 C 8.41 g/m*3 12.6 C 3.2 km/h
433 17-03-2020 12:00:00 12.7 C 8.46 g/m*3 12.7 C 1.6 km/h
434 17-03-2020 12:05:00 12.9 C 8.57 g/m*3 12.9 C 1.6 km/h
435 17-03-2020 12:10:00 13.1 C 8.44 g/m*3 13.1 C 4.8 km/h
436 17-03-2020 12:15:00 13.3 C 8.43 g/m*3 13.3 C 4.8 km/h
437 17-03-2020 12:20:00 13.5 C 8.42 g/m*3 13.5 C 3.2 km/h
438 17-03-2020 12:25:00 13.7 C 8.41 g/m*3 13.7 C 3.2 km/h
439 17-03-2020 12:30:00 14.1 C 8.62 g/m*3 14.1 C 8.1 km/h
440 17-03-2020 12:35:00 14.1 C 8.5 g/m*3 14.1 C 6.4 km/h
441 17-03-2020 12:40:00 14.2 C 8.43 g/m*3 14.2 C 6.4 km/h
442 17-03-2020 12:45:00 14.3 C 8.48 g/m*3 14.3 C 8.1 km/h
443 17-03-2020 12:50:00 14.5 C 8.58 g/m*3 14.5 C 6.4 km/h
444 17-03-2020 12:55:00 14.6 C 8.63 g/m*3 14.6 C 4.8 km/h
445 17-03-2020 13:00:00 14.6 C 8.51 g/m*3 14.6 C 3.2 km/h
446 17-03-2020 13:05:00 14.7 C 8.56 g/m*3 14.7 C 0 km/h
447 17-03-2020 13:10:00 14.8 C 8.74 g/m*3 14.8 C 6.4 km/h
448 17-03-2020 13:15:00 14.9 C 8.67 g/m*3 14.9 C 4.8 km/h
449 17-03-2020 13:20:00 15.1 C 8.64 g/m*3 15.1 C 4.8 km/h
450 17-03-2020 13:25:00 15.2 C 8.57 g/m*3 15.2 C 8.1 km/h
Sensor: Nr:Datum:Temp:Abs-Feuchte:Windchill:Wind:
Aussen-T/F 451 17-03-2020 13:30:00 15.1 C 8.51 g/m*3 15.1 C 8.1 km/h
452 17-03-2020 13:35:00 15.1 C 8.64 g/m*3 15.1 C 6.4 km/h
453 17-03-2020 13:40:00 15.1 C 8.39 g/m*3 15.1 C 4.8 km/h
454 17-03-2020 13:45:00 15.1 C 8.51 g/m*3 15.1 C 6.4 km/h
455 17-03-2020 13:50:00 15.2 C 8.31 g/m*3 15.2 C 6.4 km/h
456 17-03-2020 13:55:00 15.4 C 8.67 g/m*3 15.4 C 1.6 km/h
457 17-03-2020 14:00:00 15.7 C 8.7 g/m*3 15.7 C 3.2 km/h
458 17-03-2020 14:05:00 15.9 C 8.53 g/m*3 15.9 C 3.2 km/h
459 17-03-2020 14:10:00 15.8 C 8.35 g/m*3 15.8 C 6.4 km/h
460 17-03-2020 14:15:00 15.7 C 8.56 g/m*3 15.7 C 0 km/h
461 17-03-2020 14:20:00 15.6 C 8.38 g/m*3 15.6 C 0 km/h
462 17-03-2020 14:25:00 15.7 C 8.43 g/m*3 15.7 C 4.8 km/h
463 17-03-2020 14:30:00 15.7 C 8.43 g/m*3 15.7 C 8.1 km/h
464 17-03-2020 14:35:00 15.5 C 8.2 g/m*3 15.5 C 8.1 km/h
465 17-03-2020 14:40:00 15.4 C 8.28 g/m*3 15.4 C 8.1 km/h
466 17-03-2020 14:45:00 15.4 C 8.41 g/m*3 15.4 C 3.2 km/h
467 17-03-2020 14:50:00 15.4 C 8.28 g/m*3 15.4 C 6.4 km/h
468 17-03-2020 14:55:00 15.4 C 8.28 g/m*3 15.4 C 6.4 km/h
469 17-03-2020 15:00:00 15.6 C 8.38 g/m*3 15.6 C 3.2 km/h
470 17-03-2020 15:05:00 15.7 C 8.3 g/m*3 15.7 C 6.4 km/h
471 17-03-2020 15:10:00 15.8 C 8.21 g/m*3 15.8 C 6.4 km/h
472 17-03-2020 15:15:00 15.8 C 8.08 g/m*3 15.8 C 8.1 km/h
473 17-03-2020 15:20:00 15.8 C 7.94 g/m*3 15.8 C 6.4 km/h
474 17-03-2020 15:25:00 15.9 C 7.99 g/m*3 15.9 C 3.2 km/h
475 17-03-2020 15:30:00 16.1 C 7.95 g/m*3 16.1 C 4.8 km/h
Sensor: Nr:Datum:Temp:Abs-Feuchte:Windchill:Wind:
Aussen-T/F 476 17-03-2020 15:35:00 16.3 C 7.91 g/m*3 16.3 C 4.8 km/h
477 17-03-2020 15:40:00 16.5 C 7.72 g/m*3 16.5 C 4.8 km/h
478 17-03-2020 15:45:00 16.6 C 7.77 g/m*3 16.6 C 4.8 km/h
479 17-03-2020 15:50:00 16.8 C 7.86 g/m*3 16.8 C 4.8 km/h
480 17-03-2020 15:55:00 16.8 C 8.01 g/m*3 16.8 C 3.2 km/h
481 17-03-2020 16:00:00 16.9 C 7.91 g/m*3 16.9 C 4.8 km/h
482 17-03-2020 16:05:00 17 C 7.81 g/m*3 17 C 3.2 km/h
483 17-03-2020 16:10:00 17.1 C 8.01 g/m*3 17.1 C 6.4 km/h
484 17-03-2020 16:15:00 17.2 C 7.91 g/m*3 17.2 C 8.1 km/h
485 17-03-2020 16:20:00 17.3 C 8.1 g/m*3 17.3 C 4.8 km/h
486 17-03-2020 16:25:00 17.4 C 8.45 g/m*3 17.4 C 3.2 km/h
487 17-03-2020 16:30:00 17.6 C 8.1 g/m*3 17.6 C 8.1 km/h
488 17-03-2020 16:35:00 17.7 C 8.15 g/m*3 17.7 C 1.6 km/h
489 17-03-2020 16:40:00 17.8 C 8.04 g/m*3 17.8 C 4.8 km/h
490 17-03-2020 16:45:00 17.8 C 7.89 g/m*3 17.8 C 6.4 km/h
491 17-03-2020 16:50:00 18 C 8.14 g/m*3 18 C 4.8 km/h
492 17-03-2020 16:55:00 18.2 C 8.08 g/m*3 18.2 C 8.1 km/h
493 17-03-2020 17:00:00 18.2 C 8.08 g/m*3 18.2 C 4.8 km/h
494 17-03-2020 17:05:00 18.2 C 7.93 g/m*3 18.2 C 4.8 km/h
495 17-03-2020 17:10:00 18.2 C 8.24 g/m*3 18.2 C 0 km/h
496 17-03-2020 17:15:00 18.3 C 8.44 g/m*3 18.3 C 0 km/h
497 17-03-2020 17:20:00 18.4 C 8.49 g/m*3 18.4 C 0 km/h
498 17-03-2020 17:25:00 18.4 C 8.18 g/m*3 18.4 C 1.6 km/h
499 17-03-2020 17:30:00 18.2 C 8.24 g/m*3 18.2 C 3.2 km/h
500 17-03-2020 17:35:00 18.1 C 8.03 g/m*3 18.1 C 1.6 km/h
Sensor: Nr:Datum:Temp:Abs-Feuchte:Windchill:Wind:
Aussen-T/F 501 17-03-2020 17:40:00 17.9 C 7.94 g/m*3 17.9 C 1.6 km/h
502 17-03-2020 17:45:00 17.8 C 8.5 g/m*3 17.8 C 0 km/h
503 17-03-2020 17:50:00 17.7 C 8.45 g/m*3 17.7 C 0 km/h
504 17-03-2020 17:55:00 17.3 C 8.84 g/m*3 17.3 C 0 km/h
505 17-03-2020 18:00:00 17 C 8.68 g/m*3 17 C 0 km/h
506 17-03-2020 18:05:00 16.6 C 8.76 g/m*3 16.6 C 3.2 km/h
507 17-03-2020 18:10:00 16.2 C 8.69 g/m*3 16.2 C 3.2 km/h
508 17-03-2020 18:15:00 15.7 C 8.7 g/m*3 15.7 C 4.8 km/h
509 17-03-2020 18:20:00 15.2 C 8.57 g/m*3 15.2 C 4.8 km/h
510 17-03-2020 18:25:00 14.7 C 8.56 g/m*3 14.7 C 4.8 km/h
511 17-03-2020 18:30:00 14.2 C 8.43 g/m*3 14.2 C 4.8 km/h
512 17-03-2020 18:35:00 13.7 C 8.41 g/m*3 13.7 C 4.8 km/h
513 17-03-2020 18:40:00 13.3 C 8.32 g/m*3 13.3 C 4.8 km/h
514 17-03-2020 18:45:00 13 C 8.28 g/m*3 13 C 4.8 km/h
515 17-03-2020 18:50:00 12.7 C 8.24 g/m*3 12.7 C 4.8 km/h
516 17-03-2020 18:55:00 12.4 C 8.3 g/m*3 12.4 C 4.8 km/h
517 17-03-2020 19:00:00 12.2 C 8.2 g/m*3 12.2 C 4.8 km/h
518 17-03-2020 19:05:00 12 C 8.21 g/m*3 12 C 4.8 km/h
519 17-03-2020 19:10:00 11.8 C 8.21 g/m*3 11.8 C 4.8 km/h
520 17-03-2020 19:15:00 11.7 C 8.16 g/m*3 11.7 C 4.8 km/h
521 17-03-2020 19:20:00 11.5 C 8.16 g/m*3 11.5 C 6.4 km/h
522 17-03-2020 19:25:00 11.4 C 8.11 g/m*3 11.4 C 4.8 km/h
523 17-03-2020 19:30:00 11.3 C 8.06 g/m*3 11.3 C 4.8 km/h
524 17-03-2020 19:35:00 11.2 C 8.01 g/m*3 11.2 C 0 km/h
525 17-03-2020 19:40:00 11 C 8.01 g/m*3 11 C 4.8 km/h
Sensor: Nr:Datum:Temp:Abs-Feuchte:Windchill:Wind:
Aussen-T/F 526 17-03-2020 19:45:00 10.8 C 8.01 g/m*3 10.8 C 4.8 km/h
527 17-03-2020 19:50:00 10.7 C 7.96 g/m*3 10.7 C 4.8 km/h
528 17-03-2020 19:55:00 10.6 C 7.91 g/m*3 10.6 C 4.8 km/h
529 17-03-2020 20:00:00 10.4 C 7.9 g/m*3 10.4 C 0 km/h
530 17-03-2020 20:05:00 10.3 C 7.95 g/m*3 10.3 C 0 km/h
531 17-03-2020 20:10:00 10.2 C 7.9 g/m*3 10.2 C 0 km/h
532 17-03-2020 20:15:00 10.1 C 7.85 g/m*3 10.1 C 4.8 km/h
533 17-03-2020 20:20:00 10.1 C 7.94 g/m*3 9.48 C 6.4 km/h
534 17-03-2020 20:25:00 10.1 C 7.94 g/m*3 9.48 C 6.4 km/h
535 17-03-2020 20:30:00 10.1 C 7.94 g/m*3 8.8 C 9.7 km/h
536 17-03-2020 20:35:00 10.3 C 7.95 g/m*3 9.04 C 9.7 km/h
537 17-03-2020 20:40:00 10.3 C 7.95 g/m*3 10.3 C 3.2 km/h
538 17-03-2020 20:45:00 10.3 C 7.85 g/m*3 10.3 C 1.6 km/h
539 17-03-2020 20:50:00 10.2 C 7.9 g/m*3 10.2 C 1.6 km/h
540 17-03-2020 20:55:00 10.1 C 7.85 g/m*3 10.1 C 0 km/h
541 17-03-2020 21:00:00 10.1 C 7.85 g/m*3 10.1 C 3.2 km/h
542 17-03-2020 21:05:00 9.9 C 7.75 g/m*3 9.9 C 1.6 km/h
543 17-03-2020 21:10:00 9.8 C 7.79 g/m*3 9.8 C 1.6 km/h
544 17-03-2020 21:15:00 9.7 C 7.74 g/m*3 9.7 C 0 km/h
545 17-03-2020 21:20:00 9.6 C 7.79 g/m*3 9.6 C 0 km/h
546 17-03-2020 21:25:00 9.5 C 7.74 g/m*3 9.5 C 0 km/h
547 17-03-2020 21:30:00 9.4 C 7.69 g/m*3 9.4 C 0 km/h
548 17-03-2020 21:35:00 9.3 C 7.64 g/m*3 9.3 C 0 km/h
549 17-03-2020 21:40:00 9.2 C 7.68 g/m*3 9.2 C 0 km/h
550 17-03-2020 21:45:00 9.1 C 7.63 g/m*3 9.1 C 0 km/h
Sensor: Nr:Datum:Temp:Abs-Feuchte:Windchill:Wind:
Aussen-T/F 551 17-03-2020 21:50:00 8.9 C 7.53 g/m*3 8.9 C 0 km/h
552 17-03-2020 21:55:00 8.8 C 7.49 g/m*3 8.8 C 0 km/h
553 17-03-2020 22:00:00 8.7 C 7.44 g/m*3 8.7 C 0 km/h
554 17-03-2020 22:05:00 8.6 C 7.39 g/m*3 8.6 C 0 km/h
555 17-03-2020 22:10:00 8.3 C 7.25 g/m*3 8.3 C 0 km/h
556 17-03-2020 22:15:00 8.2 C 7.29 g/m*3 8.2 C 0 km/h
557 17-03-2020 22:20:00 8.1 C 7.24 g/m*3 8.1 C 0 km/h
558 17-03-2020 22:25:00 8.1 C 7.32 g/m*3 8.1 C 0 km/h
559 17-03-2020 22:30:00 7.9 C 7.23 g/m*3 7.9 C 0 km/h
560 17-03-2020 22:35:00 7.8 C 7.18 g/m*3 7.8 C 0 km/h
561 17-03-2020 22:40:00 7.7 C 7.14 g/m*3 7.7 C 0 km/h
562 17-03-2020 22:45:00 7.6 C 7.09 g/m*3 7.6 C 0 km/h
563 17-03-2020 22:50:00 7.4 C 7.08 g/m*3 7.4 C 0 km/h
564 17-03-2020 22:55:00 7.4 C 7.08 g/m*3 7.4 C 0 km/h
565 17-03-2020 23:00:00 7.3 C 7.03 g/m*3 7.3 C 0 km/h
566 17-03-2020 23:05:00 7.3 C 7.11 g/m*3 7.3 C 0 km/h
567 17-03-2020 23:10:00 7.2 C 7.06 g/m*3 7.2 C 0 km/h
568 17-03-2020 23:15:00 7.2 C 7.06 g/m*3 7.2 C 0 km/h
569 17-03-2020 23:20:00 7.1 C 7.02 g/m*3 7.1 C 0 km/h
570 17-03-2020 23:25:00 7 C 6.97 g/m*3 7 C 0 km/h
571 17-03-2020 23:30:00 7 C 7.05 g/m*3 7 C 0 km/h
572 17-03-2020 23:35:00 6.9 C 7.01 g/m*3 6.9 C 0 km/h
573 17-03-2020 23:40:00 6.8 C 6.88 g/m*3 6.8 C 0 km/h
574 17-03-2020 23:45:00 6.8 C 6.96 g/m*3 6.8 C 0 km/h
575 17-03-2020 23:50:00 6.7 C 6.91 g/m*3 6.7 C 0 km/h
Sensor: Nr:Datum:Temp:Abs-Feuchte:Windchill:Wind:
Aussen-T/F 576 17-03-2020 23:55:00 6.8 C 7.04 g/m*3 6.8 C 0 km/h

Legende:
   Min
   Max


Maximal/Minimal-Werte vom 16.03.2020 - 17.03.2020

Sensor Min Max Avg
Temp
(Aussen-T/F)
1.7 °C
16-03-2020  06:45:00
19.1 °C
16-03-2020  16:50:00
10.34 °C
Abs-Feuchte
(Aussen-T/F)
5.06 g/m*3
16-03-2020  06:45:00
9.18 g/m*3
16-03-2020  16:30:00
7.61 g/m*3
Windchill
(Aussen-T/F)
1.7 C
16-03-2020  06:45:00
19.1 C
16-03-2020  16:50:00
10.31 C

Die Daten stammen von einer Davis Vantage Pro 2 Wetter-Station und werden unter Linux mit der Software wview2wettercgi und aufbereitet. Alle Angaben erfolgen ohne Gewähr für ihre Vollständigkeit oder Richtigkeit.
Kontakt: Rainer Krienke krienke@uni-koblenz.de . Meine Webseiten an der Uni Koblenz oder privat.
Version: $Revision: 0.78 $